Acorn, Kentucky
Current Conditions -  °F | °C
As of 11:35 PM on Saturday 25 Oct 2014 (Local Time) from KSME Reporting Station
Moderate Fog Moderate Fog  
Wind Chill: 52°   Ceiling: 300
Heat Index: 52°   Visibility: 0.5mi
Dew Point: 52°   Wind: 0mph
Humidity: 100%   Direction: NA
Pressure: 30.02"   Gusts: NA
Location:  37.0813°N, 84.4741°W
Report Text: KSME 260335Z AUTO 00000KT 1/2SM FG BKN003 11/11 A3002 RMK AO2
Loading
Personal Weather Stations






























Interactive Weather Map
Tropical Storm Tracking
New forecast layout! Learn more

10-Day Weather Forecast

Advertisements
Track Severe Weather on mobile